createdAt,value
2022-10-08T07:04:16.246Z,15.35
2022-10-08T07:06:42.563Z,14.51
2022-10-08T07:21:05.573Z,13.24
2022-10-08T07:35:55.712Z,13.02
2022-10-08T07:50:47.130Z,10.87
2022-10-08T08:05:38.459Z,8.24
2022-10-08T08:20:30.072Z,8.03
2022-10-08T08:35:23.845Z,9.99
2022-10-08T08:50:23.836Z,9.34
2022-10-08T09:05:19.063Z,8.23
2022-10-08T09:20:14.360Z,6.99
2022-10-08T09:35:10.779Z,10.93
2022-10-08T09:50:17.270Z,8.89
2022-10-08T10:05:16.632Z,5.00
2022-10-08T10:20:23.101Z,3.80
2022-10-08T10:35:18.182Z,6.24
2022-10-08T10:50:14.105Z,3.49
2022-10-08T11:20:33.805Z,6.01
2022-10-08T11:35:35.624Z,4.00
2022-10-08T11:50:27.382Z,3.41
2022-10-08T12:05:18.925Z,2.14
2022-10-08T12:20:28.428Z,3.82
2022-10-08T12:35:32.121Z,4.09
2022-10-08T12:50:44.351Z,3.72
2022-10-08T13:05:40.977Z,1.88
2022-10-08T13:20:34.315Z,3.36
2022-10-08T13:35:27.405Z,3.14
2022-10-08T13:50:20.157Z,1.41
2022-10-08T14:05:12.050Z,2.67
2022-10-08T14:34:57.376Z,6.00
2022-10-08T14:49:46.357Z,6.14
2022-10-08T15:04:38.107Z,2.87
2022-10-08T17:19:01.963Z,5.46
2022-10-08T17:33:53.608Z,4.73
2022-10-08T17:48:45.017Z,4.23
2022-10-08T18:03:52.656Z,6.40
2022-10-08T18:18:39.242Z,5.40
2022-10-08T18:33:29.472Z,8.83
2022-10-08T18:48:19.401Z,14.93
2022-10-08T19:03:10.490Z,11.77
2022-10-08T19:18:01.112Z,10.11
2022-10-08T19:32:52.364Z,7.33
2022-10-08T19:47:43.181Z,11.11
2022-10-08T20:02:34.454Z,14.08
2022-10-08T20:17:25.538Z,9.63
2022-10-08T20:32:16.079Z,7.62
2022-10-08T20:47:07.124Z,8.48
2022-10-08T21:01:59.285Z,8.90
2022-10-08T21:16:51.552Z,8.22
2022-10-08T21:31:42.056Z,7.56
2022-10-08T21:46:32.786Z,11.01
2022-10-08T22:01:36.662Z,12.16
2022-10-08T22:16:32.270Z,10.28
2022-10-08T22:31:23.805Z,10.61
2022-10-08T22:46:14.184Z,10.40
2022-10-08T23:01:07.442Z,10.32
2022-10-08T23:16:05.455Z,13.96
2022-10-08T23:31:04.242Z,7.39
2022-10-08T23:45:57.339Z,9.78
